Time;durP1;ratioP1;P1;durP2;ratioP2;P2;SDS_P1;SDS_P2;PMS_P1;PMS_P2;Temp;Humidity;BMP_temperature;BMP_pressure;BME280_temperature;BME280_humidity;BME280_pressure;Samples;Min_cycle;Max_cycle;Signal;HPM_P1;HPM_P2
2022/03/10 00:01:39;;;;;;;;;;;0.10;82.50;;;;;;5066341;28;19920;-83
2022/03/10 00:04:05;;;;;;;;;;;0.10;83.70;;;;;;5051228;28;20343;-83
2022/03/10 00:06:30;;;;;;;;;;;0.00;84.40;;;;;;5083604;28;20018;-84
2022/03/10 00:08:56;;;;;;;;;;;0.00;84.60;;;;;;5066148;28;19960;-84
2022/03/10 00:11:21;;;;;;;;;;;0.00;84.40;;;;;;5084393;28;19924;-85
2022/03/10 00:13:47;;;;;;;;;;;0.10;84.60;;;;;;5067513;28;19990;-84
2022/03/10 00:16:12;;;;;;;;;;;0.00;85.20;;;;;;5067828;28;20377;-84
2022/03/10 00:18:38;;;;;;;;;;;0.00;85.20;;;;;;5084030;28;19927;-84
2022/03/10 00:21:03;;;;;;;;;;;-0.10;85.40;;;;;;5067197;28;19920;-84
2022/03/10 00:23:29;;;;;;;;;;;-0.10;86.50;;;;;;5058557;28;19913;-84
2022/03/10 00:25:55;;;;;;;;;;;-0.10;87.50;;;;;;5014398;28;19917;-84
2022/03/10 00:28:20;;;;;;;;;;;-0.10;88.10;;;;;;5062413;23;20019;-80
2022/03/10 00:30:46;;;;;;;;;;;-0.20;88.10;;;;;;5063023;28;20018;-80
2022/03/10 00:33:11;;;;;;;;;;;-0.20;88.10;;;;;;5085017;28;20035;-80
2022/03/10 00:35:37;;;;;;;;;;;-0.20;88.10;;;;;;5078326;28;19966;-79
2022/03/10 00:38:02;;;;;;;;;;;-0.30;88.00;;;;;;5072562;28;19924;-80
2022/03/10 00:40:28;;;;;;;;;;;-0.30;88.60;;;;;;5057752;28;19925;-80
2022/03/10 00:42:57;;;;;;;;;;;-0.30;88.80;;;;;;5057099;28;20350;-80
2022/03/10 00:45:22;;;;;;;;;;;-0.30;89.10;;;;;;5065592;28;19916;-80
2022/03/10 00:47:48;;;;;;;;;;;-0.30;90.00;;;;;;5071934;28;19920;-80
2022/03/10 00:50:14;;;;;;;;;;;-0.40;90.10;;;;;;5078869;28;20413;-80
2022/03/10 00:52:43;;;;;;;;;;;-0.40;90.10;;;;;;5056490;28;19916;-80
2022/03/10 00:55:09;;;;;;;;;;;-0.40;90.00;;;;;;5079367;28;19921;-80
2022/03/10 00:57:35;;;;;;;;;;;-0.40;90.30;;;;;;5062197;28;20305;-79
2022/03/10 01:00:00;;;;;;;;;;;-0.40;90.30;;;;;;5061367;28;19924;-80
2022/03/10 01:02:26;;;;;;;;;;;-0.40;90.00;;;;;;5065354;28;20259;-79
2022/03/10 01:04:51;;;;;;;;;;;-0.40;90.00;;;;;;5063706;28;19924;-80
2022/03/10 01:07:17;;;;;;;;;;;-0.40;89.90;;;;;;5057807;28;20152;-79
2022/03/10 01:09:42;;;;;;;;;;;-0.40;89.40;;;;;;5054856;28;19966;-79
2022/03/10 01:12:08;;;;;;;;;;;-0.50;88.90;;;;;;5061106;28;20272;-80
2022/03/10 01:14:34;;;;;;;;;;;-0.50;88.90;;;;;;5067635;28;19936;-80
2022/03/10 01:16:59;;;;;;;;;;;-0.50;88.90;;;;;;5075926;28;19919;-80
2022/03/10 01:19:25;;;;;;;;;;;-0.50;89.10;;;;;;5076650;28;19923;-80
2022/03/10 01:21:50;;;;;;;;;;;-0.50;89.30;;;;;;5066649;28;20447;-80
2022/03/10 01:24:16;;;;;;;;;;;-0.50;89.40;;;;;;5056132;28;19917;-80
2022/03/10 01:26:41;;;;;;;;;;;-0.50;89.50;;;;;;5066671;28;19920;-80
2022/03/10 01:29:07;;;;;;;;;;;-0.50;89.20;;;;;;5058460;28;19920;-79
2022/03/10 01:31:33;;;;;;;;;;;-0.50;89.40;;;;;;5062018;28;19916;-80
2022/03/10 01:33:59;;;;;;;;;;;-0.50;89.90;;;;;;5068571;28;19916;-80
2022/03/10 01:36:25;;;;;;;;;;;-0.50;90.40;;;;;;5087473;28;19927;-80
2022/03/10 01:38:51;;;;;;;;;;;-0.60;90.90;;;;;;5057336;28;19921;-80
2022/03/10 01:41:17;;;;;;;;;;;-0.60;91.30;;;;;;5085532;28;19974;-80
2022/03/10 01:43:56;;;;;;;;;;;-0.60;91.60;;;;;;5079061;28;19912;-80
2022/03/10 01:46:21;;;;;;;;;;;-0.60;91.60;;;;;;5063789;28;19916;-80
2022/03/10 01:48:47;;;;;;;;;;;-0.60;91.40;;;;;;5074085;28;19916;-80
2022/03/10 01:51:16;;;;;;;;;;;-0.60;91.20;;;;;;5065969;28;20012;-80
2022/03/10 01:53:42;;;;;;;;;;;-0.60;91.30;;;;;;5077227;28;20317;-80
2022/03/10 01:56:11;;;;;;;;;;;-0.60;91.40;;;;;;5084304;28;19916;-79
2022/03/10 01:58:40;;;;;;;;;;;-0.60;91.20;;;;;;5082241;28;20786;-80
2022/03/10 02:01:05;;;;;;;;;;;-0.60;91.20;;;;;;5078110;28;19923;-80
2022/03/10 02:03:31;;;;;;;;;;;-0.60;90.50;;;;;;5059275;28;20371;-80
2022/03/10 02:05:56;;;;;;;;;;;-0.60;90.10;;;;;;5069110;28;19923;-80
2022/03/10 02:11:06;;;;;;;;;;;-0.70;89.90;;;;;;5074471;28;19960;-80
2022/03/10 02:13:32;;;;;;;;;;;-0.70;90.20;;;;;;5066801;28;19924;-80
2022/03/10 02:18:41;;;;;;;;;;;-0.70;90.90;;;;;;5076808;28;19965;-80
2022/03/10 02:21:07;;;;;;;;;;;-0.70;91.20;;;;;;5088777;28;20003;-80
2022/03/10 02:23:33;;;;;;;;;;;-0.70;91.10;;;;;;5065777;28;19916;-80
2022/03/10 02:25:59;;;;;;;;;;;-0.70;90.70;;;;;;5084531;28;20005;-80
2022/03/10 02:28:25;;;;;;;;;;;-0.80;90.50;;;;;;5079690;28;20289;-80
2022/03/10 02:30:51;;;;;;;;;;;-0.80;90.70;;;;;;5056532;28;20009;-80
2022/03/10 02:33:16;;;;;;;;;;;-0.80;91.00;;;;;;5075145;28;19924;-80
2022/03/10 02:35:42;;;;;;;;;;;-0.80;91.10;;;;;;5063809;28;19916;-80
2022/03/10 02:38:07;;;;;;;;;;;-0.80;91.80;;;;;;5089597;28;19923;-80
2022/03/10 02:40:33;;;;;;;;;;;-0.90;91.40;;;;;;5078073;28;19979;-80
2022/03/10 02:42:59;;;;;;;;;;;-0.90;91.50;;;;;;5067250;28;19916;-80
2022/03/10 02:45:25;;;;;;;;;;;-0.90;91.40;;;;;;5059046;28;19939;-80
2022/03/10 02:47:51;;;;;;;;;;;-1.00;91.50;;;;;;5079440;28;19932;-80
2022/03/10 02:50:16;;;;;;;;;;;-1.00;92.40;;;;;;5061244;28;20015;-80
2022/03/10 02:52:42;;;;;;;;;;;-1.00;92.50;;;;;;5071531;28;19970;-80
2022/03/10 02:55:08;;;;;;;;;;;-1.00;92.80;;;;;;5074925;28;20379;-80
2022/03/10 02:57:34;;;;;;;;;;;-1.10;93.10;;;;;;5082445;28;19912;-80
2022/03/10 03:00:00;;;;;;;;;;;-1.10;93.40;;;;;;5081203;28;20339;-80
2022/03/10 03:02:26;;;;;;;;;;;-1.10;93.60;;;;;;5082833;28;19912;-80
2022/03/10 03:04:51;;;;;;;;;;;-1.10;93.90;;;;;;5066869;28;19947;-80
2022/03/10 03:07:17;;;;;;;;;;;-1.10;94.20;;;;;;5054112;28;20276;-80
2022/03/10 03:09:45;;;;;;;;;;;-1.10;94.10;;;;;;5057012;28;20324;-80
2022/03/10 03:12:11;;;;;;;;;;;-1.10;94.00;;;;;;5071746;28;19921;-80
2022/03/10 03:14:36;;;;;;;;;;;-1.10;93.90;;;;;;5062875;28;19913;-80
2022/03/10 03:17:02;;;;;;;;;;;-1.10;93.70;;;;;;5078056;28;19951;-80
2022/03/10 03:19:31;;;;;;;;;;;-1.10;93.60;;;;;;5057411;28;20439;-80
2022/03/10 03:21:56;;;;;;;;;;;-1.10;93.90;;;;;;5055936;28;19921;-80
2022/03/10 03:24:22;;;;;;;;;;;-1.10;93.60;;;;;;5071183;28;19924;-80
2022/03/10 03:26:47;;;;;;;;;;;-1.10;93.40;;;;;;5075103;28;20490;-80
2022/03/10 03:29:13;;;;;;;;;;;-1.10;93.20;;;;;;5081174;28;20106;-80
2022/03/10 03:31:41;;;;;;;;;;;-1.20;93.40;;;;;;5058965;28;20294;-80
2022/03/10 03:34:10;;;;;;;;;;;-1.20;93.40;;;;;;5078389;28;20391;-80
2022/03/10 03:36:39;;;;;;;;;;;-1.20;93.50;;;;;;5076939;28;19919;-80
2022/03/10 03:39:05;;;;;;;;;;;-1.20;94.00;;;;;;5087350;28;19920;-80
2022/03/10 03:41:30;;;;;;;;;;;-1.20;93.70;;;;;;5071962;28;20383;-80
2022/03/10 03:43:56;;;;;;;;;;;-1.30;93.90;;;;;;5053158;28;20252;-80
2022/03/10 03:46:21;;;;;;;;;;;-1.30;94.40;;;;;;5052920;28;20019;-80
2022/03/10 03:48:47;;;;;;;;;;;-1.30;94.90;;;;;;5067567;28;20306;-80
2022/03/10 03:51:12;;;;;;;;;;;-1.30;95.00;;;;;;5062112;28;19978;-80
2022/03/10 03:53:38;;;;;;;;;;;-1.40;95.20;;;;;;5070840;28;19920;-80
2022/03/10 03:56:04;;;;;;;;;;;-1.40;95.80;;;;;;5059897;28;19927;-80
2022/03/10 03:58:29;;;;;;;;;;;-1.40;96.10;;;;;;5073146;28;20298;-80
2022/03/10 04:00:55;;;;;;;;;;;-1.40;96.10;;;;;;5071997;28;19920;-80
2022/03/10 04:03:20;;;;;;;;;;;-1.40;96.50;;;;;;5075541;28;19939;-80
2022/03/10 04:05:46;;;;;;;;;;;-1.50;96.20;;;;;;5063562;28;19945;-80
2022/03/10 04:08:11;;;;;;;;;;;-1.50;96.30;;;;;;5055211;28;19916;-80
2022/03/10 04:10:37;;;;;;;;;;;-1.50;96.20;;;;;;5059828;28;19952;-80
2022/03/10 04:13:03;;;;;;;;;;;-1.50;95.90;;;;;;5077301;28;20057;-80
2022/03/10 04:15:28;;;;;;;;;;;-1.50;95.50;;;;;;5065946;28;19974;-80
2022/03/10 04:17:54;;;;;;;;;;;-1.50;95.30;;;;;;5072327;28;20380;-80
2022/03/10 04:20:19;;;;;;;;;;;-1.50;95.30;;;;;;5071515;28;20062;-80
2022/03/10 04:22:45;;;;;;;;;;;-1.50;95.40;;;;;;5068617;28;20013;-80
2022/03/10 04:25:11;;;;;;;;;;;-1.50;95.50;;;;;;5063114;28;19924;-80
2022/03/10 04:27:37;;;;;;;;;;;-1.50;95.80;;;;;;5050728;28;20366;-80
2022/03/10 04:30:03;;;;;;;;;;;-1.50;95.60;;;;;;5079447;28;20011;-80
2022/03/10 04:32:29;;;;;;;;;;;-1.50;95.90;;;;;;5051439;28;19917;-80
2022/03/10 04:34:54;;;;;;;;;;;-1.60;96.10;;;;;;5051680;28;19919;-79
2022/03/10 04:37:20;;;;;;;;;;;-1.60;96.40;;;;;;5084391;28;20027;-80
2022/03/10 04:39:45;;;;;;;;;;;-1.60;96.50;;;;;;5057888;28;19964;-80
2022/03/10 04:42:11;;;;;;;;;;;-1.60;96.40;;;;;;5059794;28;20044;-82
2022/03/10 04:44:37;;;;;;;;;;;-1.70;96.10;;;;;;5067395;28;19917;-80
2022/03/10 04:47:02;;;;;;;;;;;-1.70;95.80;;;;;;5080683;28;19916;-81
2022/03/10 04:49:28;;;;;;;;;;;-1.70;96.00;;;;;;5060652;28;19979;-81
2022/03/10 04:51:53;;;;;;;;;;;-1.70;96.40;;;;;;5087751;28;20358;-81
2022/03/10 04:54:19;;;;;;;;;;;-1.70;96.30;;;;;;5058326;28;19924;-81
2022/03/10 04:56:44;;;;;;;;;;;-1.70;96.10;;;;;;5066551;28;19999;-81
2022/03/10 04:59:10;;;;;;;;;;;-1.70;96.20;;;;;;5064356;28;20031;-81
2022/03/10 05:01:35;;;;;;;;;;;-1.70;96.20;;;;;;5060793;28;19924;-80
2022/03/10 05:04:01;;;;;;;;;;;-1.70;96.30;;;;;;5069193;28;19920;-81
2022/03/10 05:06:26;;;;;;;;;;;-1.70;96.40;;;;;;5084115;28;19951;-81
2022/03/10 05:08:52;;;;;;;;;;;-1.70;96.40;;;;;;5081660;28;19927;-81
2022/03/10 05:11:17;;;;;;;;;;;-1.70;96.50;;;;;;5090359;28;20374;-81
2022/03/10 05:13:43;;;;;;;;;;;-1.70;96.40;;;;;;5059131;28;19923;-81
2022/03/10 05:16:09;;;;;;;;;;;-1.70;96.70;;;;;;5064783;28;19946;-81
2022/03/10 05:18:34;;;;;;;;;;;-1.70;96.70;;;;;;5056537;28;19926;-81
2022/03/10 05:21:00;;;;;;;;;;;-1.70;96.70;;;;;;5084640;28;20312;-81
2022/03/10 05:23:25;;;;;;;;;;;-1.70;96.70;;;;;;5059487;28;20587;-81
2022/03/10 05:25:51;;;;;;;;;;;-1.80;96.70;;;;;;5090395;28;19920;-81
2022/03/10 05:28:17;;;;;;;;;;;-1.80;97.20;;;;;;5063518;28;20003;-81
2022/03/10 05:30:44;;;;;;;;;;;-1.80;97.70;;;;;;5064860;28;19916;-81
2022/03/10 05:33:10;;;;;;;;;;;-1.80;98.20;;;;;;5066194;28;19921;-81
2022/03/10 05:35:35;;;;;;;;;;;-1.80;98.40;;;;;;5085947;28;20026;-81
2022/03/10 05:38:02;;;;;;;;;;;-1.70;98.70;;;;;;5066962;28;20003;-81
2022/03/10 05:40:27;;;;;;;;;;;-1.70;98.90;;;;;;5075159;28;19967;-81
2022/03/10 05:42:54;;;;;;;;;;;-1.70;98.90;;;;;;5071146;28;20025;-81
2022/03/10 05:45:20;;;;;;;;;;;-1.70;98.80;;;;;;5078508;28;20213;-81
2022/03/10 05:47:49;;;;;;;;;;;-1.70;98.90;;;;;;5062876;28;19917;-81
2022/03/10 05:50:15;;;;;;;;;;;-1.60;98.70;;;;;;5068708;28;19927;-81
2022/03/10 05:52:41;;;;;;;;;;;-1.60;98.80;;;;;;5055981;28;20278;-81
2022/03/10 05:55:07;;;;;;;;;;;-1.60;98.90;;;;;;5066453;28;20372;-81
2022/03/10 05:57:32;;;;;;;;;;;-1.60;99.10;;;;;;5086764;28;19922;-81
2022/03/10 05:59:58;;;;;;;;;;;-1.50;99.20;;;;;;5079123;28;19921;-81
2022/03/10 06:02:24;;;;;;;;;;;-1.50;99.30;;;;;;5081312;28;19965;-81
2022/03/10 06:04:49;;;;;;;;;;;-1.50;99.20;;;;;;5056713;28;19927;-81
2022/03/10 06:07:16;;;;;;;;;;;-1.40;99.20;;;;;;5066020;28;19927;-81
2022/03/10 06:09:41;;;;;;;;;;;-1.30;99.00;;;;;;5061771;28;20003;-81
2022/03/10 06:12:08;;;;;;;;;;;-1.20;98.70;;;;;;5054278;28;20321;-81
2022/03/10 06:14:33;;;;;;;;;;;-1.10;98.30;;;;;;5068362;28;19916;-81
2022/03/10 06:16:59;;;;;;;;;;;-1.10;97.90;;;;;;5067999;28;19920;-81
2022/03/10 06:19:24;;;;;;;;;;;-1.00;97.60;;;;;;5074962;28;19946;-80
2022/03/10 06:21:51;;;;;;;;;;;-1.00;97.20;;;;;;5055195;28;19924;-81
2022/03/10 06:24:16;;;;;;;;;;;-0.90;97.20;;;;;;5057661;28;20296;-81
2022/03/10 06:26:43;;;;;;;;;;;-0.90;97.10;;;;;;5075283;28;19921;-81
2022/03/10 06:29:09;;;;;;;;;;;-0.80;97.10;;;;;;5062569;22;19929;-80
2022/03/10 06:31:35;;;;;;;;;;;-0.80;97.00;;;;;;5052796;28;19950;-80
2022/03/10 06:34:00;;;;;;;;;;;-0.70;96.70;;;;;;5052487;28;19967;-81
2022/03/10 06:36:26;;;;;;;;;;;-0.70;96.50;;;;;;5027913;28;19922;-80
2022/03/10 06:38:53;;;;;;;;;;;-0.60;96.20;;;;;;5012834;28;19914;-80
2022/03/10 06:41:18;;;;;;;;;;;-0.50;96.00;;;;;;5048659;28;19913;-81
2022/03/10 06:43:44;;;;;;;;;;;-0.40;95.70;;;;;;5056343;28;19917;-81
2022/03/10 06:46:09;;;;;;;;;;;-0.40;95.40;;;;;;5033830;28;19913;-81
2022/03/10 06:48:35;;;;;;;;;;;-0.30;95.10;;;;;;5045130;28;19958;-80
2022/03/10 06:51:01;;;;;;;;;;;-0.30;95.00;;;;;;5033056;28;19920;-81
2022/03/10 06:53:26;;;;;;;;;;;-0.30;94.80;;;;;;5052578;28;20004;-80
2022/03/10 06:55:52;;;;;;;;;;;-0.20;94.80;;;;;;5016951;28;19913;-80
2022/03/10 06:58:18;;;;;;;;;;;-0.20;94.90;;;;;;5031037;28;20386;-81
2022/03/10 07:00:44;;;;;;;;;;;-0.20;94.80;;;;;;5039991;28;19925;-81
2022/03/10 07:03:10;;;;;;;;;;;-0.20;94.70;;;;;;5015924;28;20341;-80
2022/03/10 07:05:35;;;;;;;;;;;-0.10;94.70;;;;;;5015827;28;19917;-81
2022/03/10 07:08:01;;;;;;;;;;;-0.10;94.90;;;;;;5020680;28;20024;-81
2022/03/10 07:10:27;;;;;;;;;;;-0.10;95.00;;;;;;5057424;28;19981;-80
2022/03/10 07:12:54;;;;;;;;;;;-0.10;95.10;;;;;;5034063;28;20379;-80
2022/03/10 07:15:23;;;;;;;;;;;0.00;95.20;;;;;;5031916;28;19913;-81
2022/03/10 07:17:49;;;;;;;;;;;0.10;95.30;;;;;;5052197;28;20012;-81
2022/03/10 07:20:14;;;;;;;;;;;0.10;96.30;;;;;;5050776;28;19916;-82
2022/03/10 07:22:40;;;;;;;;;;;0.20;97.00;;;;;;5021357;28;19968;-81
2022/03/10 07:25:06;;;;;;;;;;;0.30;96.50;;;;;;5053629;28;19920;-81
2022/03/10 07:27:32;;;;;;;;;;;0.30;96.00;;;;;;5033915;28;19921;-80
2022/03/10 07:29:57;;;;;;;;;;;0.40;95.70;;;;;;5029495;28;20008;-80
2022/03/10 07:32:24;;;;;;;;;;;0.40;95.30;;;;;;5033553;28;20015;-81
2022/03/10 07:34:50;;;;;;;;;;;0.50;95.00;;;;;;5029028;28;19921;-80
2022/03/10 07:37:16;;;;;;;;;;;0.60;94.90;;;;;;5021285;28;19913;-80
2022/03/10 07:39:41;;;;;;;;;;;0.70;94.80;;;;;;5044554;28;19913;-81
2022/03/10 07:42:07;;;;;;;;;;;0.80;94.40;;;;;;5023725;28;19921;-81
2022/03/10 07:44:33;;;;;;;;;;;0.90;94.00;;;;;;5035304;28;20391;-81
2022/03/10 07:46:58;;;;;;;;;;;1.00;93.60;;;;;;5019760;28;19973;-80
2022/03/10 07:49:24;;;;;;;;;;;1.20;93.60;;;;;;5026924;28;20338;-80
2022/03/10 07:51:49;;;;;;;;;;;1.30;95.80;;;;;;5028639;28;19932;-81
2022/03/10 07:54:15;;;;;;;;;;;1.40;95.70;;;;;;5040300;28;19917;-80
2022/03/10 07:56:40;;;;;;;;;;;1.50;95.50;;;;;;5045438;28;20616;-81
2022/03/10 07:59:06;;;;;;;;;;;1.70;95.40;;;;;;5030258;28;19921;-82
2022/03/10 08:01:31;;;;;;;;;;;1.80;95.10;;;;;;5030524;28;19921;-81
2022/03/10 08:03:57;;;;;;;;;;;1.90;94.90;;;;;;5032994;28;19917;-81
2022/03/10 08:06:27;;;;;;;;;;;2.00;94.80;;;;;;5047835;28;19920;-80
2022/03/10 08:08:53;;;;;;;;;;;2.20;94.40;;;;;;5064519;28;19912;-82
2022/03/10 08:11:18;;;;;;;;;;;2.30;93.50;;;;;;5026060;28;19935;-81
2022/03/10 08:13:44;;;;;;;;;;;2.40;92.70;;;;;;5038268;28;19924;-80
2022/03/10 08:16:10;;;;;;;;;;;2.60;93.50;;;;;;5039308;28;19920;-81
2022/03/10 08:18:36;;;;;;;;;;;2.70;93.70;;;;;;5055440;28;19915;-81
2022/03/10 08:21:01;;;;;;;;;;;2.90;93.30;;;;;;5055191;28;19915;-81
2022/03/10 08:23:27;;;;;;;;;;;3.00;92.80;;;;;;5044879;28;20021;-80
2022/03/10 08:25:53;;;;;;;;;;;3.20;92.30;;;;;;5056215;28;20355;-80
2022/03/10 08:28:18;;;;;;;;;;;3.30;91.70;;;;;;5028499;28;19914;-82
2022/03/10 08:30:44;;;;;;;;;;;3.50;91.30;;;;;;5032302;28;19921;-82
2022/03/10 08:33:10;;;;;;;;;;;3.70;93.30;;;;;;5024190;28;20015;-81
2022/03/10 08:35:35;;;;;;;;;;;3.90;93.30;;;;;;5038415;28;19917;-81
2022/03/10 08:38:01;;;;;;;;;;;4.00;91.70;;;;;;5039885;28;19917;-81
2022/03/10 08:40:28;;;;;;;;;;;4.10;90.10;;;;;;5035306;28;19963;-81
2022/03/10 08:42:54;;;;;;;;;;;4.30;82.20;;;;;;5035073;28;19913;-81
2022/03/10 08:45:20;;;;;;;;;;;4.40;79.30;;;;;;5035650;28;19909;-82
2022/03/10 08:47:46;;;;;;;;;;;4.50;75.90;;;;;;5038884;28;19913;-81
2022/03/10 08:50:11;;;;;;;;;;;4.70;74.40;;;;;;5022680;28;19920;-81
2022/03/10 08:52:38;;;;;;;;;;;4.80;74.50;;;;;;5041160;28;19935;-81
2022/03/10 08:55:05;;;;;;;;;;;5.00;73.50;;;;;;5042425;28;19924;-81
2022/03/10 08:57:31;;;;;;;;;;;5.20;73.00;;;;;;5042337;28;19913;-81
2022/03/10 08:59:57;;;;;;;;;;;5.40;70.20;;;;;;5042142;28;19928;-81
2022/03/10 09:02:23;;;;;;;;;;;5.50;65.30;;;;;;5041880;28;20399;-81
2022/03/10 09:04:49;;;;;;;;;;;5.70;63.10;;;;;;5025124;28;20024;-82
2022/03/10 09:07:14;;;;;;;;;;;5.80;61.30;;;;;;5034602;28;19948;-82
2022/03/10 09:09:40;;;;;;;;;;;6.00;61.30;;;;;;5040946;28;19966;-82
2022/03/10 09:12:06;;;;;;;;;;;6.00;59.80;;;;;;5034765;28;19917;-82
2022/03/10 09:14:31;;;;;;;;;;;6.10;59.10;;;;;;5031083;28;19921;-82
2022/03/10 09:16:57;;;;;;;;;;;6.30;58.80;;;;;;5040753;28;19916;-83
2022/03/10 09:19:23;;;;;;;;;;;6.40;59.20;;;;;;5035288;28;19956;-82
2022/03/10 09:21:48;;;;;;;;;;;6.50;58.00;;;;;;5029282;28;20643;-80
2022/03/10 09:24:17;;;;;;;;;;;6.60;57.60;;;;;;5052341;28;19915;-79
2022/03/10 09:26:43;;;;;;;;;;;6.70;57.20;;;;;;5066264;28;19917;-80
2022/03/10 09:29:08;;;;;;;;;;;6.70;56.80;;;;;;5052603;28;19978;-80
2022/03/10 09:31:34;;;;;;;;;;;6.80;57.00;;;;;;5055617;28;19917;-79
2022/03/10 09:33:59;;;;;;;;;;;6.90;56.50;;;;;;5029558;28;20370;-82
2022/03/10 09:36:28;;;;;;;;;;;7.00;56.70;;;;;;5019286;28;19971;-81
2022/03/10 09:38:54;;;;;;;;;;;7.10;55.60;;;;;;5042618;28;19928;-81
2022/03/10 09:41:20;;;;;;;;;;;7.20;55.40;;;;;;5051082;28;20364;-81
2022/03/10 09:43:46;;;;;;;;;;;7.30;55.60;;;;;;5032315;28;19957;-80
2022/03/10 09:46:12;;;;;;;;;;;7.40;55.40;;;;;;5040196;28;19913;-80
2022/03/10 09:48:39;;;;;;;;;;;7.40;53.80;;;;;;5054921;28;19916;-81
2022/03/10 09:51:04;;;;;;;;;;;7.50;53.80;;;;;;5045099;28;20513;-81
2022/03/10 09:53:31;;;;;;;;;;;7.60;54.80;;;;;;5038789;28;19920;-82
2022/03/10 09:55:57;;;;;;;;;;;7.70;54.30;;;;;;5036577;28;19916;-80
2022/03/10 09:58:22;;;;;;;;;;;7.80;53.00;;;;;;5043091;28;19919;-81
2022/03/10 10:00:48;;;;;;;;;;;7.90;52.40;;;;;;5047759;28;19917;-80
2022/03/10 10:03:15;;;;;;;;;;;8.00;52.80;;;;;;5029128;28;19917;-80
2022/03/10 10:05:40;;;;;;;;;;;8.10;52.00;;;;;;5042243;28;19952;-80
2022/03/10 10:08:11;;;;;;;;;;;8.30;52.40;;;;;;5034257;28;19924;-80
2022/03/10 10:10:39;;;;;;;;;;;8.40;51.60;;;;;;5045002;28;19999;-80
2022/03/10 10:13:09;;;;;;;;;;;8.50;50.80;;;;;;5035047;28;19913;-81
2022/03/10 10:15:35;;;;;;;;;;;8.60;50.70;;;;;;5052509;28;20380;-81
2022/03/10 10:18:01;;;;;;;;;;;8.70;49.50;;;;;;5040494;28;19917;-81
2022/03/10 10:20:30;;;;;;;;;;;8.80;48.50;;;;;;5045373;28;20395;-82
2022/03/10 10:22:56;;;;;;;;;;;8.90;48.90;;;;;;5039253;28;19921;-80
2022/03/10 10:25:21;;;;;;;;;;;9.10;49.50;;;;;;5014683;28;19918;-80
2022/03/10 10:27:47;;;;;;;;;;;9.20;48.90;;;;;;5050725;28;20334;-82
2022/03/10 10:30:13;;;;;;;;;;;9.30;47.80;;;;;;5049531;28;19920;-82
2022/03/10 10:32:46;;;;;;;;;;;9.30;47.10;;;;;;5039929;28;19913;-82
2022/03/10 10:35:21;;;;;;;;;;;9.40;47.50;;;;;;5047814;28;20048;-82
2022/03/10 10:37:51;;;;;;;;;;;9.50;47.70;;;;;;5023130;28;20011;-81
2022/03/10 10:40:21;;;;;;;;;;;9.60;46.90;;;;;;5026493;28;19921;-81
2022/03/10 10:42:46;;;;;;;;;;;9.70;47.20;;;;;;5028538;28;19917;-81
2022/03/10 10:45:32;;;;;;;;;;;9.80;46.80;;;;;;5052159;28;20451;-81
2022/03/10 10:47:58;;;;;;;;;;;9.90;46.40;;;;;;5034427;28;19917;-81
2022/03/10 10:50:24;;;;;;;;;;;10.00;47.20;;;;;;5040613;28;19917;-81
2022/03/10 10:52:49;;;;;;;;;;;10.10;46.40;;;;;;5046486;28;20000;-81
2022/03/10 10:55:15;;;;;;;;;;;10.10;45.40;;;;;;5040851;28;19917;-81
2022/03/10 10:57:43;;;;;;;;;;;10.20;45.60;;;;;;5049774;28;20480;-81
2022/03/10 11:00:10;;;;;;;;;;;10.20;45.60;;;;;;5045067;28;20421;-81
2022/03/10 11:02:45;;;;;;;;;;;10.30;46.00;;;;;;5040731;28;20342;-81
2022/03/10 11:05:14;;;;;;;;;;;10.30;44.90;;;;;;5044377;28;19940;-81
2022/03/10 11:07:42;;;;;;;;;;;10.40;45.60;;;;;;5050399;28;19913;-81
2022/03/10 11:10:14;;;;;;;;;;;10.50;45.40;;;;;;5031315;28;19936;-81
2022/03/10 11:12:41;;;;;;;;;;;10.50;45.20;;;;;;5027600;28;19913;-81
2022/03/10 11:15:07;;;;;;;;;;;10.60;44.80;;;;;;5016343;28;19917;-81
2022/03/10 11:17:34;;;;;;;;;;;10.60;44.50;;;;;;5029213;28;19918;-81
2022/03/10 11:20:01;;;;;;;;;;;10.70;43.90;;;;;;5032315;28;19964;-81
2022/03/10 11:22:29;;;;;;;;;;;10.70;43.70;;;;;;5026797;28;20380;-81
2022/03/10 11:25:06;;;;;;;;;;;10.80;43.80;;;;;;5020697;28;21727;-82
2022/03/10 11:27:32;;;;;;;;;;;10.80;43.50;;;;;;5046596;28;19919;-82
2022/03/10 11:30:00;;;;;;;;;;;10.90;43.60;;;;;;5032597;28;20012;-81
2022/03/10 11:32:28;;;;;;;;;;;10.90;44.10;;;;;;5054716;28;19964;-81
2022/03/10 11:34:55;;;;;;;;;;;11.00;43.80;;;;;;5039168;28;20391;-81
2022/03/10 11:37:40;;;;;;;;;;;11.10;43.60;;;;;;5040816;28;19913;-82
2022/03/10 11:40:06;;;;;;;;;;;11.20;44.30;;;;;;5042650;28;20016;-80
2022/03/10 11:42:32;;;;;;;;;;;11.30;44.80;;;;;;5052751;28;20347;-81
2022/03/10 11:45:04;;;;;;;;;;;11.50;43.20;;;;;;5047694;28;19919;-81
2022/03/10 11:47:30;;;;;;;;;;;11.50;42.90;;;;;;5037533;28;19913;-81
2022/03/10 11:49:56;;;;;;;;;;;11.60;42.50;;;;;;5040146;28;20395;-82
2022/03/10 11:52:22;;;;;;;;;;;11.60;42.20;;;;;;5028918;28;20001;-82
2022/03/10 11:55:08;;;;;;;;;;;11.70;42.60;;;;;;5048557;28;19920;-79
2022/03/10 11:57:59;;;;;;;;;;;11.80;42.00;;;;;;5047789;28;20424;-79
2022/03/10 12:00:40;;;;;;;;;;;11.80;42.40;;;;;;5041570;28;20314;-81
2022/03/10 12:03:07;;;;;;;;;;;11.90;42.20;;;;;;5032747;28;20411;-81
2022/03/10 12:05:58;;;;;;;;;;;11.90;41.30;;;;;;5039488;28;19913;-80
2022/03/10 12:08:29;;;;;;;;;;;11.90;40.50;;;;;;5033657;28;19925;-80
2022/03/10 12:10:55;;;;;;;;;;;12.00;39.50;;;;;;5026156;28;19923;-79
2022/03/10 12:13:27;;;;;;;;;;;12.00;41.10;;;;;;5039972;28;20441;-79
2022/03/10 12:15:52;;;;;;;;;;;12.10;40.90;;;;;;5054251;28;19919;-80
2022/03/10 12:18:23;;;;;;;;;;;12.10;39.30;;;;;;5052095;28;19945;-80
2022/03/10 12:20:50;;;;;;;;;;;12.20;40.30;;;;;;5039035;28;19933;-80
2022/03/10 12:23:17;;;;;;;;;;;12.20;39.90;;;;;;5041976;28;19940;-81
2022/03/10 12:25:44;;;;;;;;;;;12.30;39.20;;;;;;5041166;28;20537;-81
2022/03/10 12:28:10;;;;;;;;;;;12.30;38.70;;;;;;5030963;28;20005;-79
2022/03/10 12:30:39;;;;;;;;;;;12.30;39.50;;;;;;5073574;23;19933;-88
2022/03/10 12:33:04;;;;;;;;;;;12.30;38.70;;;;;;5061267;28;19923;-88
2022/03/10 12:35:31;;;;;;;;;;;12.40;39.00;;;;;;5063937;28;20440;-87
2022/03/10 12:37:56;;;;;;;;;;;12.30;37.90;;;;;;5031907;28;19920;-88
2022/03/10 12:40:23;;;;;;;;;;;12.30;39.90;;;;;;5048655;28;20257;-87
2022/03/10 12:42:48;;;;;;;;;;;12.30;39.60;;;;;;5048825;28;19913;-88
2022/03/10 12:45:20;;;;;;;;;;;12.30;38.10;;;;;;5048736;28;19909;-88
2022/03/10 12:48:06;;;;;;;;;;;12.40;38.40;;;;;;5031829;28;20367;-86
2022/03/10 12:50:33;;;;;;;;;;;12.40;38.70;;;;;;5047571;28;20091;-88
2022/03/10 12:53:07;;;;;;;;;;;12.40;38.80;;;;;;5048626;28;19940;-87
2022/03/10 12:55:34;;;;;;;;;;;12.40;38.50;;;;;;5049018;28;19909;-87
2022/03/10 12:57:59;;;;;;;;;;;12.40;38.70;;;;;;5035567;28;19913;-88
2022/03/10 13:00:25;;;;;;;;;;;12.50;38.90;;;;;;5035571;28;19943;-88
2022/03/10 13:02:54;;;;;;;;;;;12.50;39.10;;;;;;5053559;28;20333;-87
2022/03/10 13:05:20;;;;;;;;;;;12.50;38.40;;;;;;5052371;28;19912;-87
2022/03/10 13:07:46;;;;;;;;;;;12.60;38.20;;;;;;5052211;28;20024;-87
2022/03/10 13:10:13;;;;;;;;;;;12.60;37.30;;;;;;5052500;28;20393;-88
2022/03/10 13:12:39;;;;;;;;;;;12.60;36.60;;;;;;5052295;28;19916;-87
2022/03/10 13:15:19;;;;;;;;;;;12.60;37.10;;;;;;5035608;28;19963;-88
2022/03/10 13:17:45;;;;;;;;;;;12.60;36.70;;;;;;5051435;28;20380;-88
2022/03/10 13:20:12;;;;;;;;;;;12.60;36.70;;;;;;5052079;28;19920;-87
2022/03/10 13:22:43;;;;;;;;;;;12.60;36.60;;;;;;5052146;28;19920;-88
2022/03/10 13:25:08;;;;;;;;;;;12.60;37.10;;;;;;5053734;28;20285;-88
2022/03/10 13:27:34;;;;;;;;;;;12.60;37.80;;;;;;5034923;28;19917;-88
2022/03/10 13:29:59;;;;;;;;;;;12.60;37.50;;;;;;5053210;28;19921;-88
2022/03/10 13:32:27;;;;;;;;;;;12.60;37.10;;;;;;5051740;28;19909;-88
2022/03/10 13:34:56;;;;;;;;;;;12.60;37.30;;;;;;5035240;28;20423;-88
2022/03/10 13:37:22;;;;;;;;;;;12.50;37.40;;;;;;5051397;28;20296;-87
2022/03/10 13:39:49;;;;;;;;;;;12.50;37.30;;;;;;5035382;28;19917;-88
2022/03/10 13:42:27;;;;;;;;;;;12.50;38.20;;;;;;5052728;28;19909;-87
2022/03/10 13:45:11;;;;;;;;;;;12.40;38.90;;;;;;5051450;28;19913;-87
2022/03/10 13:47:46;;;;;;;;;;;12.30;38.60;;;;;;5034335;28;19951;-87
2022/03/10 13:50:12;;;;;;;;;;;12.30;38.60;;;;;;5053137;28;19920;-87
2022/03/10 13:52:37;;;;;;;;;;;12.20;39.60;;;;;;5051466;28;20328;-87
2022/03/10 13:55:08;;;;;;;;;;;12.20;39.10;;;;;;5051763;28;20315;-87
2022/03/10 13:57:34;;;;;;;;;;;12.20;39.20;;;;;;5051077;28;19917;-87
2022/03/10 14:00:05;;;;;;;;;;;12.20;39.70;;;;;;5035012;28;19951;-88
2022/03/10 14:02:30;;;;;;;;;;;12.20;39.00;;;;;;5052336;28;19912;-87
2022/03/10 14:04:56;;;;;;;;;;;12.20;38.50;;;;;;5051326;28;19913;-88
2022/03/10 14:07:24;;;;;;;;;;;12.20;39.30;;;;;;5033051;28;19917;-87
2022/03/10 14:09:50;;;;;;;;;;;12.20;39.30;;;;;;5051140;28;19917;-88
2022/03/10 14:12:17;;;;;;;;;;;12.20;39.40;;;;;;5034324;28;20015;-87
2022/03/10 14:14:44;;;;;;;;;;;12.20;39.20;;;;;;5035085;28;19987;-87
2022/03/10 14:17:09;;;;;;;;;;;12.20;38.10;;;;;;5054923;28;19926;-87
2022/03/10 14:19:36;;;;;;;;;;;12.20;38.10;;;;;;5068758;28;20359;-87
2022/03/10 14:22:03;;;;;;;;;;;12.20;38.80;;;;;;5064523;28;19963;-88
2022/03/10 14:24:30;;;;;;;;;;;12.20;38.50;;;;;;5053652;28;20046;-87